createdAt,value
2024-04-21T00:01:21.876Z,102378.91
2024-04-21T00:03:48.978Z,102375.38
2024-04-21T00:06:16.278Z,102385.19
2024-04-21T00:08:42.871Z,102383.38
2024-04-21T00:11:09.543Z,102371.88
2024-04-21T00:13:36.183Z,102371.88
2024-04-21T00:16:02.995Z,102363.03
2024-04-21T00:18:29.601Z,102359.53
2024-04-21T00:20:56.233Z,102344.50
2024-04-21T00:23:22.816Z,102342.69
2024-04-21T00:25:59.979Z,102340.03
2024-04-21T00:28:26.667Z,102339.19
2024-04-21T00:30:54.393Z,102336.66
2024-04-21T00:33:21.077Z,102341.00
2024-04-21T00:35:47.804Z,102346.34
2024-04-21T00:38:16.085Z,102335.81
2024-04-21T00:40:42.646Z,102324.16
2024-04-21T00:43:10.646Z,102322.34
2024-04-21T00:45:42.791Z,102321.50
2024-04-21T00:48:09.889Z,102319.81
2024-04-21T00:50:39.505Z,102333.13
2024-04-21T00:53:08.558Z,102321.63
2024-04-21T00:55:36.478Z,102312.66
2024-04-21T00:58:04.042Z,102330.47
2024-04-21T01:00:31.345Z,102303.84
2024-04-21T01:02:57.890Z,102302.13
2024-04-21T01:05:24.580Z,102301.28
2024-04-21T01:07:51.238Z,102297.78
2024-04-21T01:10:17.939Z,102289.66
2024-04-21T01:12:44.770Z,102280.81
2024-04-21T01:15:11.371Z,102283.50
2024-04-21T01:17:38.718Z,102270.28
2024-04-21T01:20:05.741Z,102269.44
2024-04-21T01:22:32.287Z,102271.13
2024-04-21T01:24:58.833Z,102273.94
2024-04-21T01:27:25.413Z,102274.78
2024-04-21T01:29:51.968Z,102266.78
2024-04-21T01:32:19.626Z,102267.63
2024-04-21T01:34:46.288Z,102257.94
2024-04-21T01:37:13.171Z,102254.31
2024-04-21T01:39:40.479Z,102252.63
2024-04-21T01:42:07.117Z,102245.63
2024-04-21T01:44:36.733Z,102243.78
2024-04-21T01:47:03.535Z,102234.13
2024-04-21T01:49:30.400Z,102227.81
2024-04-21T01:51:57.122Z,102220.81
2024-04-21T01:54:23.927Z,102223.47
2024-04-21T01:56:50.529Z,102207.63
2024-04-21T01:59:17.068Z,102197.94
2024-04-21T02:01:43.670Z,102201.31
2024-04-21T02:04:10.321Z,102197.81
2024-04-21T02:06:36.987Z,102186.31
2024-04-21T02:09:03.547Z,102186.31
2024-04-21T02:11:30.110Z,102172.16
2024-04-21T02:13:56.701Z,102172.16
2024-04-21T02:16:23.280Z,102160.78
2024-04-21T02:18:49.991Z,102151.81
2024-04-21T02:21:16.543Z,102148.31
2024-04-21T02:23:43.080Z,102144.78
2024-04-21T02:26:09.670Z,102145.50
2024-04-21T02:28:36.182Z,102141.28
2024-04-21T02:31:04.931Z,102136.81
2024-04-21T02:33:31.579Z,102132.31
2024-04-21T02:35:58.084Z,102122.78
2024-04-21T02:38:24.659Z,102127.25
2024-04-21T02:40:51.212Z,102124.34
2024-04-21T02:43:17.971Z,102124.47
2024-04-21T02:45:44.549Z,102131.59
2024-04-21T02:48:11.110Z,102141.41
2024-04-21T02:50:38.233Z,102148.56
2024-04-21T02:53:04.779Z,102179.56
2024-04-21T02:55:31.313Z,102169.88
2024-04-21T02:57:57.926Z,102172.53
2024-04-21T03:00:24.463Z,102176.03
2024-04-21T03:02:51.038Z,102154.00
2024-04-21T03:05:17.751Z,102148.56
2024-04-21T03:07:44.338Z,102136.22
2024-04-21T03:10:11.049Z,102132.59
2024-04-21T03:12:37.640Z,102128.22
2024-04-21T03:15:04.830Z,102130.88
2024-04-21T03:17:31.464Z,102135.38
2024-04-21T03:19:58.126Z,102142.38
2024-04-21T03:22:24.733Z,102135.38
2024-04-21T03:24:51.318Z,102142.53
2024-04-21T03:27:17.849Z,102136.34
2024-04-21T03:29:44.378Z,102135.50
2024-04-21T03:32:11.128Z,102133.69
2024-04-21T03:34:37.670Z,102130.31
2024-04-21T03:37:04.610Z,102133.69
2024-04-21T03:39:31.127Z,102129.47
2024-04-21T03:41:57.848Z,102128.34
2024-04-21T03:44:24.465Z,102125.81
2024-04-21T03:46:51.232Z,102139.97
2024-04-21T03:49:17.944Z,102130.31
2024-04-21T03:51:44.594Z,102131.16
2024-04-21T03:54:11.134Z,102131.16
2024-04-21T03:56:37.819Z,102128.47
2024-04-21T03:59:04.516Z,102116.28
2024-04-21T04:01:31.196Z,102125.94
2024-04-21T04:03:57.887Z,102124.97
2024-04-21T04:06:25.088Z,102127.78
2024-04-21T04:08:51.642Z,102119.91
2024-04-21T04:11:18.227Z,102119.91
2024-04-21T04:13:44.794Z,102116.28
2024-04-21T04:16:11.342Z,102112.75
2024-04-21T04:18:37.867Z,102119.06
2024-04-21T04:21:04.650Z,102125.09
2024-04-21T04:23:31.236Z,102127.78
2024-04-21T04:25:57.790Z,102121.72
2024-04-21T04:28:24.544Z,102128.75
2024-04-21T04:30:51.166Z,102136.72
2024-04-21T04:33:17.867Z,102128.06
2024-04-21T04:35:45.609Z,102139.53
2024-04-21T04:38:12.128Z,102129.88
2024-04-21T04:40:38.646Z,102132.53
2024-04-21T04:43:05.204Z,102136.03
2024-04-21T04:45:32.430Z,102135.19
2024-04-21T04:47:59.057Z,102143.19
2024-04-21T04:50:25.649Z,102144.16
2024-04-21T04:52:57.037Z,102151.19
2024-04-21T04:55:24.302Z,102153.97
2024-04-21T04:57:50.946Z,102165.47
2024-04-21T05:00:17.546Z,102173.59
2024-04-21T05:02:44.195Z,102176.13
2024-04-21T05:05:12.030Z,102184.97
2024-04-21T05:07:38.594Z,102193.06
2024-04-21T05:10:05.562Z,102199.25
2024-04-21T05:12:32.134Z,102202.88
2024-04-21T05:14:58.688Z,102210.75
2024-04-21T05:17:25.306Z,102215.22
2024-04-21T05:19:51.854Z,102228.53
2024-04-21T05:22:18.416Z,102226.00
2024-04-21T05:24:45.055Z,102242.81
2024-04-21T05:27:11.651Z,102246.47
2024-04-21T05:29:38.174Z,102257.13
2024-04-21T05:32:04.984Z,102256.28
2024-04-21T05:34:31.581Z,102270.44
2024-04-21T05:36:58.226Z,102273.09
2024-04-21T05:39:26.380Z,102278.41
2024-04-21T05:41:53.514Z,102292.69
2024-04-21T05:44:20.248Z,102290.00
2024-04-21T05:46:46.848Z,102290.00
2024-04-21T05:49:13.459Z,102298.88
2024-04-21T05:51:40.044Z,102307.72
2024-04-21T05:54:06.644Z,102313.97
2024-04-21T05:56:33.236Z,102325.50
2024-04-21T05:58:59.823Z,102319.44
2024-04-21T06:01:26.441Z,102334.44
2024-04-21T06:03:53.157Z,102338.91
2024-04-21T06:06:22.996Z,102347.75
2024-04-21T06:08:50.858Z,102351.38
2024-04-21T06:11:17.527Z,102352.22
2024-04-21T06:13:44.138Z,102368.22
2024-04-21T06:16:10.933Z,102371.00
2024-04-21T06:18:37.750Z,102366.50
2024-04-21T06:21:04.582Z,102378.88
2024-04-21T06:23:31.323Z,102380.69
2024-04-21T06:25:57.921Z,102391.31
2024-04-21T06:28:24.572Z,102396.66
2024-04-21T06:30:51.297Z,102398.47
2024-04-21T06:33:17.867Z,102408.28
2024-04-21T06:35:45.955Z,102414.44
2024-04-21T06:38:12.654Z,102422.44
2024-04-21T06:40:39.329Z,102423.41
2024-04-21T06:43:05.961Z,102436.72
2024-04-21T06:45:32.612Z,102443.88
2024-04-21T06:47:59.245Z,102445.56
2024-04-21T06:50:25.908Z,102451.84
2024-04-21T06:52:52.478Z,102460.81
2024-04-21T06:55:21.518Z,102459.84
2024-04-21T06:57:48.681Z,102462.50
2024-04-21T07:00:15.584Z,102467.94
2024-04-21T07:02:42.189Z,102466.97
2024-04-21T07:05:08.936Z,102481.16
2024-04-21T07:07:35.524Z,102482.97
2024-04-21T07:10:02.338Z,102490.94
2024-04-21T07:12:29.012Z,102486.59
2024-04-21T07:14:55.613Z,102499.91
2024-04-21T07:17:22.246Z,102499.06
2024-04-21T07:19:49.088Z,102499.06
2024-04-21T07:22:16.071Z,102501.72
2024-04-21T07:24:42.867Z,102497.25
2024-04-21T07:27:09.443Z,102503.41
2024-04-21T07:29:38.178Z,102508.88
2024-04-21T07:32:05.999Z,102514.91
2024-04-21T07:34:32.695Z,102505.22
2024-04-21T07:36:59.394Z,102512.38
2024-04-21T07:39:29.063Z,102513.22
2024-04-21T07:41:55.670Z,102517.59
2024-04-21T07:44:23.059Z,102531.75
2024-04-21T07:46:49.658Z,102534.41
2024-04-21T07:49:16.272Z,102538.03
2024-04-21T07:51:43.051Z,102557.41
2024-04-21T07:54:10.028Z,102560.19
2024-04-21T07:56:36.625Z,102561.03
2024-04-21T07:59:03.296Z,102562.84
2024-04-21T08:01:29.931Z,102567.22
2024-04-21T08:03:56.685Z,102574.34
2024-04-21T08:06:23.803Z,102568.19
2024-04-21T08:08:57.309Z,102566.47
2024-04-21T08:11:27.820Z,102571.69
2024-04-21T08:13:54.596Z,102576.16
2024-04-21T08:16:21.546Z,102574.34
2024-04-21T08:18:48.202Z,102572.53
2024-04-21T08:21:14.902Z,102580.41
2024-04-21T08:23:42.042Z,102582.09
2024-04-21T08:27:29.283Z,102584.69
2024-04-21T08:29:55.844Z,102588.09
2024-04-21T08:32:22.428Z,102592.28
2024-04-21T08:34:50.521Z,102596.66
2024-04-21T08:37:18.964Z,102588.66
2024-04-21T08:39:49.488Z,102596.41
2024-04-21T08:42:17.320Z,102595.44
2024-04-21T08:44:44.156Z,102600.66
2024-04-21T08:47:13.669Z,102600.44
2024-04-21T08:49:42.159Z,102606.47
2024-04-21T08:52:10.541Z,102597.53
2024-04-21T08:54:37.201Z,102591.13
2024-04-21T08:57:05.685Z,102597.97
2024-04-21T08:59:34.365Z,102597.03
2024-04-21T09:02:02.007Z,102611.06
2024-04-21T09:04:29.596Z,102604.66
2024-04-21T09:06:56.438Z,102610.84
2024-04-21T09:09:23.105Z,102617.75
2024-04-21T09:11:51.007Z,102615.94
2024-04-21T09:14:17.582Z,102610.47
2024-04-21T09:16:44.102Z,102616.66
2024-04-21T09:19:10.663Z,102620.16
2024-04-21T09:21:37.212Z,102629.88
2024-04-21T09:24:04.001Z,102625.38
2024-04-21T09:26:30.561Z,102624.53
2024-04-21T09:28:57.240Z,102633.50
2024-04-21T09:31:23.918Z,102642.34
2024-04-21T09:33:51.436Z,102640.63
2024-04-21T09:36:18.230Z,102634.47
2024-04-21T09:38:51.678Z,102624.88
2024-04-21T09:41:18.634Z,102639.91
2024-04-21T09:43:45.180Z,102642.69
2024-04-21T09:46:17.830Z,102634.69
2024-04-21T09:48:47.144Z,102645.47
2024-04-21T09:51:13.739Z,102638.44
2024-04-21T09:53:40.554Z,102650.91
2024-04-21T09:56:10.842Z,102651.78
2024-04-21T09:58:40.813Z,102645.72
2024-04-21T10:01:12.293Z,102651.88
2024-04-21T10:03:42.240Z,102656.38
2024-04-21T10:06:09.943Z,102654.56
2024-04-21T10:08:38.951Z,102655.41
2024-04-21T10:11:05.859Z,102648.50
2024-04-21T10:13:32.940Z,102644.00
2024-04-21T10:16:00.846Z,102652.72
2024-04-21T10:18:27.526Z,102653.69
2024-04-21T10:20:54.471Z,102658.06
2024-04-21T10:23:21.210Z,102659.88
2024-04-21T10:25:48.449Z,102652.72
2024-04-21T10:28:26.315Z,102649.22
2024-04-21T10:31:04.119Z,102664.25
2024-04-21T10:33:30.729Z,102658.91
2024-04-21T10:35:58.313Z,102660.72
2024-04-21T10:38:25.256Z,102667.75
2024-04-21T10:40:51.948Z,102658.19
2024-04-21T10:43:22.509Z,102665.09
2024-04-21T10:45:49.086Z,102666.06
2024-04-21T10:48:15.793Z,102662.53
2024-04-21T10:50:44.027Z,102660.84
2024-04-21T10:53:10.946Z,102658.06
2024-04-21T10:55:37.647Z,102656.38
2024-04-21T10:58:08.089Z,102663.41
2024-04-21T11:00:39.107Z,102661.47
2024-04-21T11:03:07.265Z,102659.88
2024-04-21T11:05:43.067Z,102647.41
2024-04-21T11:08:09.713Z,102652.84
2024-04-21T11:10:37.559Z,102659.88
2024-04-21T11:13:07.721Z,102655.50
2024-04-21T11:15:41.418Z,102670.53
2024-04-21T11:18:08.125Z,102664.34
2024-04-21T11:20:34.899Z,102664.34
2024-04-21T11:23:01.670Z,102662.53
2024-04-21T11:25:28.791Z,102664.34
2024-04-21T11:27:56.207Z,102670.66
2024-04-21T11:30:25.429Z,102669.81
2024-04-21T11:32:52.452Z,102683.97
2024-04-21T11:35:22.464Z,102677.78
2024-04-21T11:37:52.184Z,102677.91
2024-04-21T11:40:20.526Z,102683.25
2024-04-21T11:42:47.430Z,102684.09
2024-04-21T11:45:25.767Z,102681.44
2024-04-21T11:47:55.606Z,102682.41
2024-04-21T11:50:23.423Z,102677.91
2024-04-21T11:52:50.028Z,102675.25
2024-04-21T11:55:16.629Z,102683.34
2024-04-21T11:57:43.547Z,102684.22
2024-04-21T12:00:10.483Z,102689.53
2024-04-21T12:02:37.337Z,102697.53
2024-04-21T12:05:04.401Z,102692.19
2024-04-21T12:07:31.034Z,102685.31
2024-04-21T12:09:57.641Z,102687.03
2024-04-21T12:12:24.335Z,102680.84
2024-04-21T12:14:50.873Z,102690.53
2024-04-21T12:17:20.084Z,102685.31
2024-04-21T12:19:46.700Z,102688.84
2024-04-21T12:22:13.655Z,102689.81
2024-04-21T12:24:43.362Z,102681.94
2024-04-21T12:27:10.337Z,102676.47
2024-04-21T12:29:36.974Z,102687.25
2024-04-21T12:32:03.733Z,102686.28
2024-04-21T12:34:30.348Z,102685.44
2024-04-21T12:36:56.874Z,102687.25
2024-04-21T12:39:23.987Z,102686.41
2024-04-21T12:41:50.642Z,102679.38
2024-04-21T12:44:17.216Z,102682.91
2024-04-21T12:46:44.728Z,102678.41
2024-04-21T12:49:11.601Z,102683.00
2024-04-21T12:51:39.242Z,102680.22
2024-04-21T12:54:05.853Z,102675.75
2024-04-21T12:56:32.600Z,102678.41
2024-04-21T12:58:59.113Z,102674.06
2024-04-21T13:01:25.842Z,102674.06
2024-04-21T13:03:52.463Z,102672.22
2024-04-21T13:06:20.157Z,102667.88
2024-04-21T13:08:46.697Z,102662.53
2024-04-21T13:11:13.316Z,102667.88
2024-04-21T13:13:39.904Z,102671.38
2024-04-21T13:16:06.989Z,102667.75
2024-04-21T13:18:33.709Z,102668.72
2024-04-21T13:21:00.410Z,102675.00
2024-04-21T13:23:26.962Z,102661.69
2024-04-21T13:25:53.506Z,102674.06
2024-04-21T13:28:20.052Z,102673.19
2024-04-21T13:30:46.670Z,102672.34
2024-04-21T13:33:13.398Z,102661.69
2024-04-21T13:35:40.074Z,102674.06
2024-04-21T13:38:06.600Z,102663.41
2024-04-21T13:40:33.275Z,102673.19
2024-04-21T13:42:59.939Z,102681.19
2024-04-21T13:45:26.482Z,102684.72
2024-04-21T13:47:53.082Z,102698.88
2024-04-21T13:50:19.624Z,102695.38
2024-04-21T13:52:46.248Z,102705.16
2024-04-21T13:55:12.870Z,102694.50
2024-04-21T13:57:39.417Z,102703.34
2024-04-21T14:00:06.640Z,102704.31
2024-04-21T14:02:33.617Z,102695.38
2024-04-21T14:05:00.196Z,102691.00
2024-04-21T14:07:26.769Z,102695.38
2024-04-21T14:09:53.410Z,102691.97
2024-04-21T14:12:20.214Z,102696.31
2024-04-21T14:14:47.346Z,102681.31
2024-04-21T14:17:14.048Z,102685.78
2024-04-21T14:19:40.696Z,102681.31
2024-04-21T14:22:07.849Z,102677.78
2024-04-21T14:25:05.878Z,102683.97
2024-04-21T14:27:32.447Z,102673.31
2024-04-21T14:29:59.304Z,102682.16
2024-04-21T14:32:26.635Z,102675.97
2024-04-21T14:34:53.426Z,102677.78
2024-04-21T14:37:20.057Z,102679.59
2024-04-21T14:39:46.623Z,102668.09
2024-04-21T14:42:15.873Z,102666.41
2024-04-21T14:44:43.699Z,102667.25
2024-04-21T14:47:10.385Z,102667.13
2024-04-21T14:49:36.950Z,102664.59
2024-04-21T14:52:03.762Z,102663.63
2024-04-21T14:54:30.278Z,102663.75
2024-04-21T14:56:56.908Z,102663.75
2024-04-21T14:59:23.655Z,102662.78
2024-04-21T15:01:50.307Z,102656.59
2024-04-21T15:04:19.068Z,102671.72
2024-04-21T15:06:45.946Z,102673.44
2024-04-21T15:09:12.491Z,102672.59
2024-04-21T15:11:39.292Z,102669.91
2024-04-21T15:14:05.812Z,102679.72
2024-04-21T15:16:36.282Z,102677.06
2024-04-21T15:19:04.923Z,102685.91
2024-04-21T15:21:31.611Z,102688.56
2024-04-21T15:23:58.117Z,102684.94
2024-04-21T15:26:24.663Z,102693.91
2024-04-21T15:28:51.201Z,102697.41
2024-04-21T15:31:17.875Z,102702.00
2024-04-21T15:33:44.640Z,102710.84
2024-04-21T15:36:11.828Z,102717.88
2024-04-21T15:38:38.330Z,102722.34
2024-04-21T15:41:04.913Z,102746.31
2024-04-21T15:43:31.487Z,102742.81
2024-04-21T15:45:58.068Z,102741.00
2024-04-21T15:48:26.855Z,102756.13
2024-04-21T15:50:54.622Z,102752.50
2024-04-21T15:53:21.231Z,102761.44
2024-04-21T15:55:47.871Z,102769.34
2024-04-21T15:58:14.653Z,102764.97
2024-04-21T16:00:44.417Z,102762.41
2024-04-21T16:03:10.977Z,102767.75
2024-04-21T16:05:38.900Z,102767.75
2024-04-21T16:08:09.515Z,102775.75
2024-04-21T16:10:36.358Z,102772.22
2024-04-21T16:13:03.030Z,102769.44
2024-04-21T16:15:29.917Z,102758.91
2024-04-21T16:17:56.741Z,102754.44
2024-04-21T16:20:23.477Z,102755.38
2024-04-21T16:22:50.116Z,102746.44
2024-04-21T16:25:16.845Z,102745.47
2024-04-21T16:27:43.522Z,102748.25
2024-04-21T16:30:10.417Z,102744.84
2024-04-21T16:32:39.024Z,102741.22
2024-04-21T16:35:06.367Z,102748.25
2024-04-21T16:37:33.357Z,102738.44
2024-04-21T16:40:00.351Z,102742.06
2024-04-21T16:42:28.653Z,102735.91
2024-04-21T16:44:56.338Z,102735.03
2024-04-21T16:47:23.593Z,102741.22
2024-04-21T16:49:50.372Z,102743.03
2024-04-21T16:52:17.170Z,102742.19
2024-04-21T16:54:44.014Z,102741.22
2024-04-21T16:57:23.104Z,102743.03
2024-04-21T16:59:50.394Z,102745.69
2024-04-21T17:02:20.077Z,102737.72
2024-04-21T17:04:49.023Z,102741.34
2024-04-21T17:07:20.014Z,102745.69
2024-04-21T17:09:49.406Z,102744.00
2024-04-21T17:12:22.114Z,102748.38
2024-04-21T17:14:51.664Z,102747.50
2024-04-21T17:17:20.863Z,102752.84
2024-04-21T17:19:47.850Z,102747.63
2024-04-21T17:22:14.421Z,102749.31
2024-04-21T17:24:40.983Z,102744.97
2024-04-21T17:27:10.252Z,102751.88
2024-04-21T17:29:36.827Z,102744.00
2024-04-21T17:32:03.617Z,102758.16
2024-04-21T17:34:30.236Z,102755.50
2024-04-21T17:36:56.818Z,102752.97
2024-04-21T17:39:23.350Z,102753.81
2024-04-21T17:41:49.881Z,102765.31
2024-04-21T17:44:16.522Z,102754.66
2024-04-21T17:46:53.574Z,102755.63
2024-04-21T17:49:20.168Z,102755.63
2024-04-21T17:51:46.875Z,102760.84
2024-04-21T17:54:17.564Z,102756.47
2024-04-21T17:56:44.089Z,102764.47
2024-04-21T17:59:10.627Z,102762.66
2024-04-21T18:01:39.747Z,102760.09
2024-04-21T18:04:06.571Z,102760.09
2024-04-21T18:06:33.231Z,102767.25
2024-04-21T18:08:59.771Z,102761.94
2024-04-21T18:11:27.170Z,102768.94
2024-04-21T18:13:53.787Z,102760.09
2024-04-21T18:16:20.329Z,102774.41
2024-04-21T18:18:47.047Z,102781.41
2024-04-21T18:21:14.333Z,102779.75
2024-04-21T18:23:40.863Z,102774.25
2024-04-21T18:26:07.463Z,102781.28
2024-04-21T18:28:34.145Z,102779.75
2024-04-21T18:31:00.899Z,102779.75
2024-04-21T18:33:27.536Z,102790.25
2024-04-21T18:35:56.866Z,102787.72
2024-04-21T18:38:26.405Z,102786.03
2024-04-21T18:40:53.813Z,102789.41
2024-04-21T18:43:20.981Z,102790.38
2024-04-21T18:45:47.628Z,102797.38
2024-04-21T18:48:14.257Z,102799.34
2024-04-21T18:50:46.224Z,102792.19
2024-04-21T18:53:13.724Z,102801.91
2024-04-21T18:55:42.399Z,102798.38
2024-04-21T18:58:09.831Z,102802.84
2024-04-21T19:00:37.748Z,102809.03
2024-04-21T19:03:07.527Z,102802.97
2024-04-21T19:05:42.839Z,102809.16
2024-04-21T19:08:10.002Z,102810.97
2024-04-21T19:10:41.871Z,102814.47
2024-04-21T19:13:09.129Z,102817.25
2024-04-21T19:15:36.111Z,102817.13
2024-04-21T19:18:03.080Z,102818.94
2024-04-21T19:20:30.423Z,102825.25
2024-04-21T19:22:57.217Z,102821.63
2024-04-21T19:25:26.361Z,102826.09
2024-04-21T19:27:52.959Z,102826.94
2024-04-21T19:30:19.508Z,102830.56
2024-04-21T19:32:46.449Z,102828.75
2024-04-21T19:35:12.993Z,102826.09
2024-04-21T19:37:40.903Z,102832.38
2024-04-21T19:40:08.563Z,102830.56
2024-04-21T19:42:35.169Z,102829.72
2024-04-21T19:45:01.722Z,102835.03
2024-04-21T19:47:28.316Z,102827.97
2024-04-21T19:49:54.927Z,102832.25
2024-04-21T19:52:21.784Z,102837.72
2024-04-21T19:54:48.335Z,102835.13
2024-04-21T19:57:14.932Z,102835.97
2024-04-21T19:59:42.872Z,102835.03
2024-04-21T20:02:09.524Z,102835.97
2024-04-21T20:04:36.187Z,102830.66
2024-04-21T20:07:02.915Z,102841.31
2024-04-21T20:09:29.672Z,102844.94
2024-04-21T20:11:56.216Z,102845.78
2024-04-21T20:14:24.088Z,102837.78
2024-04-21T20:17:10.580Z,102843.97
2024-04-21T20:19:37.454Z,102847.50
2024-04-21T20:22:04.229Z,102841.31
2024-04-21T20:24:32.606Z,102848.44
2024-04-21T20:26:59.146Z,102851.09
2024-04-21T20:29:26.660Z,102857.38
2024-04-21T20:31:54.199Z,102853.88
2024-04-21T20:34:20.861Z,102852.91
2024-04-21T20:36:47.441Z,102863.56
2024-04-21T20:39:13.975Z,102860.06
2024-04-21T20:41:42.103Z,102867.19
2024-04-21T20:44:08.652Z,102871.56
2024-04-21T20:46:35.353Z,102865.50
2024-04-21T20:49:02.224Z,102869.84
2024-04-21T20:51:28.799Z,102871.66
2024-04-21T20:53:55.477Z,102874.34
2024-04-21T20:56:22.025Z,102871.66
2024-04-21T20:58:52.614Z,102883.16
2024-04-21T21:01:20.484Z,102881.47
2024-04-21T21:03:47.481Z,102878.81
2024-04-21T21:06:14.129Z,102880.50
2024-04-21T21:08:40.738Z,102883.28
2024-04-21T21:11:07.352Z,102887.66
2024-04-21T21:13:34.092Z,102886.91
2024-04-21T21:16:10.517Z,102882.44
2024-04-21T21:18:37.283Z,102885.09
2024-04-21T21:21:04.098Z,102888.72
2024-04-21T21:23:30.778Z,102885.19
2024-04-21T21:25:58.669Z,102887.75
2024-04-21T21:28:25.318Z,102889.56
2024-04-21T21:30:52.978Z,102891.38
2024-04-21T21:33:20.135Z,102880.72
2024-04-21T21:35:56.973Z,102890.41
2024-04-21T21:38:25.423Z,102887.75
2024-04-21T21:40:52.917Z,102888.72
2024-04-21T21:43:19.736Z,102886.91
2024-04-21T21:45:46.914Z,102888.81
2024-04-21T21:48:13.585Z,102886.16
2024-04-21T21:50:40.311Z,102887.03
2024-04-21T21:53:06.851Z,102884.34
2024-04-21T21:55:33.460Z,102880.84
2024-04-21T21:57:59.999Z,102885.19
2024-04-21T22:00:27.871Z,102880.84
2024-04-21T22:02:54.784Z,102887.13
2024-04-21T22:05:21.341Z,102887.97
2024-04-21T22:07:47.873Z,102882.75
2024-04-21T22:10:14.601Z,102893.31
2024-04-21T22:12:41.127Z,102880.00
2024-04-21T22:15:07.896Z,102881.81
2024-04-21T22:17:34.709Z,102883.63
2024-04-21T22:20:01.338Z,102883.72
2024-04-21T22:22:27.954Z,102882.75
2024-04-21T22:24:54.517Z,102885.53
2024-04-21T22:27:21.081Z,102882.88
2024-04-21T22:29:47.617Z,102882.88
2024-04-21T22:32:14.202Z,102886.38
2024-04-21T22:34:40.840Z,102881.91
2024-04-21T22:37:07.892Z,102880.22
2024-04-21T22:39:34.438Z,102881.06
2024-04-21T22:42:00.973Z,102878.53
2024-04-21T22:44:28.377Z,102875.03
2024-04-21T22:46:55.043Z,102882.88
2024-04-21T22:49:21.608Z,102874.88
2024-04-21T22:51:49.465Z,102873.22
2024-04-21T22:54:15.995Z,102876.69
2024-04-21T22:56:42.592Z,102877.69
2024-04-21T22:59:09.137Z,102872.34
2024-04-21T23:01:35.690Z,102876.84
2024-04-21T23:04:02.300Z,102875.03
2024-04-21T23:06:28.898Z,102868.97
2024-04-21T23:08:56.412Z,102863.63
2024-04-21T23:11:22.976Z,102872.47
2024-04-21T23:13:49.476Z,102869.81
2024-04-21T23:16:17.127Z,102870.66
2024-04-21T23:18:43.748Z,102867.25
2024-04-21T23:21:10.350Z,102864.47
2024-04-21T23:23:36.852Z,102862.78
2024-04-21T23:26:03.834Z,102859.16
2024-04-21T23:28:30.445Z,102860.22
2024-04-21T23:30:57.021Z,102862.78
2024-04-21T23:33:23.559Z,102860.13
2024-04-21T23:35:50.101Z,102859.25
2024-04-21T23:38:16.698Z,102864.59
2024-04-21T23:40:44.531Z,102861.06
2024-04-21T23:43:11.120Z,102858.41
2024-04-21T23:45:39.668Z,102854.91
2024-04-21T23:48:06.618Z,102855.00
2024-04-21T23:50:33.425Z,102854.03
2024-04-21T23:52:59.955Z,102849.69
2024-04-21T23:55:26.515Z,102840.75
2024-04-21T23:57:53.048Z,102847.88
